• Join FlightAware (Why Join?)
  • Login
  • US Flag 
08:11AM EDT


 

Airport Tracker/Info


-or-


 

Live Flight TrackerFlight Track Log ✈ SKW5396 ✈ 15-May-2013 ✈ KSEA - KPDX

Flight Track Log - Related Links

Times and Time Zones

All times are in EDT time to prevent confusion due to time zone crossing. See the SKW5396 flight status page for this flight to view local times or setup timezone preferences in your user account.

Time Position Orientation Groundspeed Altitude Reporting Facility
EDT Latitude Longitude Course Direction KTS MPH feet Rate Location/Type
02:20PM 47.4417 -122.3100 180° South 129 148 1,200  Level Seattle Center
02:20PM 47.4339 -122.3100 180° South 127 146 1,600 1,500 Climbing Seattle Center
02:21PM 47.4128 -122.3097 179° South 147 169 2,300 1,560 Climbing Seattle Center
02:21PM 47.3881 -122.3089 179° South 168 193 3,200 1,740 Climbing Seattle Center
02:22PM 47.3317 -122.3117 182° South 186 214 5,100 1,740 Climbing Seattle Center
02:23PM 47.2797 -122.3117 180° South 187 215 6,800 1,620 Climbing Seattle Center
02:24PM 47.1075 -122.3657 180° South  Level Estimated
02:24PM 47.2231 -122.3097 179° South 199 229 8,500  Level Seattle Center
02:25PM 47.0219 -122.3791 180° South  Level Estimated
02:25PM 47.1661 -122.3125 182° South 205 236 10,000  Level Seattle Center
02:26PM 47.1044 -122.3108 179° South 206 237 12,000 1,800 Climbing Seattle Center
02:27PM 47.0456 -122.3097 179° South 210 242 13,700 1,380 Climbing Seattle Center
02:28PM 46.9861 -122.3103 180° South 214 246 14,900 540 Climbing Seattle Center
02:29PM 46.9222 -122.3117 181° South 228 262 14,900  Level Seattle Center
02:30PM 46.8561 -122.3175 183° South 221 254 14,900  Level Seattle Center
02:31PM 46.7964 -122.3256 185° South 216 249 14,900  Level Seattle Center
02:32PM 46.7378 -122.3308 184° South 212 244 14,900  Level Seattle Center
02:33PM 46.6786 -122.3389 185° South 214 246 14,900  Level Seattle Center
02:34PM 46.6172 -122.3447 184° South 225 259 14,900  Level Seattle Center
02:35PM 46.5525 -122.3525 185° South 236 272 14,900  Level Seattle Center
02:36PM 46.4875 -122.3592 184° South 239 275 14,900 60 Level Seattle Center
02:37PM 46.4489 -122.3650 186° South 240 276 15,000 60 Climbing Seattle Center
02:37PM 46.4208 -122.3650 180° South 241 277 15,000  Level Seattle Center
02:38PM 46.3664 -122.3744 187° South 243 280 15,000  Level Seattle Center
02:39PM 46.3539 -122.3719 172° South 243 280 15,000  Level Seattle Center
02:39PM 46.3050 -122.3814 188° South 243 280 15,000  Level Seattle Center
02:40PM 46.2744 -122.3817 180° South 241 277 15,000 -420 Level Seattle Center
02:40PM 46.2375 -122.3908 190° South 241 277 14,600 -1,380 Descending Seattle Center
02:41PM 46.2089 -122.3894 178° South 236 272 13,600 -2,460 Descending Seattle Center
02:41PM 46.1667 -122.3956 186° South 242 278 11,900 -2,460 Descending Seattle Center
02:42PM 46.1450 -122.3978 184° South 243 280 11,100 -1,920 Descending Seattle Center
02:42PM 46.0947 -122.4036 185° South 256 295 10,000 -1,380 Descending Seattle Center
02:43PM 46.0747 -122.4061 185° South 250 288 9,700 -1,200 Descending Seattle Center
02:43PM 46.0378 -122.4336 207° Southwest 239 275 8,900 -1,320 Descending Seattle Center
02:44PM 46.0144 -122.4478 203° Southwest 234 269 8,400 -1,380 Descending Seattle Center
02:44PM 45.9736 -122.4694 200° South 233 268 7,500 -1,260 Descending Seattle Center
02:45PM 45.9556 -122.4814 205° Southwest 229 264 7,100 -960 Descending Seattle Center
02:46PM 45.8972 -122.5136 201° Southwest 225 259 6,100 -780 Descending Seattle Center
02:46PM 45.8578 -122.5297 196° South 217 250 6,000 -120 Descending Seattle Center
02:47PM 45.8314 -122.5122 155° Southeast 227 261 6,000  Level Seattle Center
02:47PM 45.8067 -122.4919 150° Southeast 201 231 6,000  Level Seattle Center
02:48PM 45.7858 -122.4683 142° Southeast 206 237 6,000  Level Seattle Center
02:48PM 45.7592 -122.4494 154° Southeast 206 237 6,000  Level Seattle Center
02:49PM 45.7342 -122.4339 157° South 204 235 6,000 -420 Level Seattle Center
02:49PM 45.7067 -122.4156 155° Southeast 209 241 5,600 -1,020 Descending Seattle Center
02:50PM 45.6803 -122.3989 156° South 208 239 5,000 -1,140 Descending Seattle Center
02:50PM 45.6522 -122.3822 157° South 215 247 4,500 -1,020 Descending Seattle Center
02:51PM 45.6256 -122.3639 154° Southeast 214 246 4,000 -1,020 Descending Seattle Center
02:51PM 45.6025 -122.3503 158° South 204 235 3,600 -900 Descending Seattle Center
02:52PM 45.5758 -122.3311 153° Southeast 205 236 3,100 -540 Descending Seattle Center
02:52PM 45.5475 -122.3144 158° South 186 214 3,000 -120 Descending Seattle Center
02:53PM 45.5275 -122.3164 184° South 201 231 3,000  Level Seattle Center
02:53PM 45.5019 -122.3364 209° Southwest 178 205 3,000  Level Seattle Center
02:54PM 45.5047 -122.3656 278° West 179 206 3,000 -240 Level Seattle Center
02:54PM 45.5189 -122.3972 303° West 186 214 2,800 -720 Descending Seattle Center
02:55PM 45.5289 -122.4261 296° West 175 201 2,300 -900 Descending Seattle Center
02:55PM 45.5394 -122.4567 296° West 158 182 1,900 -960 Descending Seattle Center